馬祖北竿航空站 - ATIS

METAR RCMT 201100Z 20012KT 7000 FEW012 SCT020 19/15 Q1009 NOSIG RMK A2982(L)=

站台狀態:Online
最後更新:2019-03-21 03:00:02